Austell, Georgia
Current Conditions -  °F | °C
As of 6:53 PM on Thursday 27 Nov 2014 (Local Time) from KFTY Reporting Station
Overcast Overcast  
Wind Chill: 35°   Ceiling: 4300
Heat Index: 41°   Visibility: 10mi
Dew Point: 25°   Wind: 10mph
Humidity: 53%   Direction: 310°NW
Pressure: 30.35"   Gusts: NA
Location:  33.82°N, 84.64°W
Report Text: KFTY 272353Z 31009KT 10SM OVC043 05/M04 A3035 RMK AO2 SLP281 T00501039 10078 20050 51015
Loading
Personal Weather Stations






























Interactive Weather Map New forecast layout! Learn more

10-Day Weather Forecast

Advertisements
Track Severe Weather on mobile